createdAt,value
2022-08-25T00:00:15.657Z,3.10
2022-08-25T00:02:48.484Z,4.07
2022-08-25T00:05:26.439Z,5.80
2022-08-25T00:07:55.557Z,3.73
2022-08-25T00:10:22.980Z,3.80
2022-08-25T00:12:50.338Z,3.97
2022-08-25T00:15:17.729Z,6.00
2022-08-25T00:17:45.474Z,4.73
2022-08-25T00:20:12.908Z,4.30
2022-08-25T00:22:40.679Z,3.87
2022-08-25T00:25:09.741Z,5.33
2022-08-25T00:27:37.419Z,4.13
2022-08-25T00:30:06.365Z,4.53
2022-08-25T00:32:33.786Z,4.90
2022-08-25T00:35:01.307Z,5.53
2022-08-25T00:37:28.742Z,3.97
2022-08-25T00:39:57.240Z,3.63
2022-08-25T00:42:25.649Z,4.23
2022-08-25T00:44:53.834Z,4.20
2022-08-25T00:47:20.890Z,3.50
2022-08-25T00:50:00.921Z,3.53
2022-08-25T00:52:54.002Z,3.97
2022-08-25T00:55:31.367Z,3.87
2022-08-25T00:58:19.207Z,4.27
2022-08-25T01:00:50.337Z,4.40
2022-08-25T01:03:19.804Z,4.23
2022-08-25T01:05:48.114Z,4.40
2022-08-25T01:08:18.420Z,3.30
2022-08-25T01:10:47.212Z,4.33
2022-08-25T01:13:24.541Z,4.00
2022-08-25T01:15:56.001Z,4.60
2022-08-25T01:18:24.337Z,5.37
2022-08-25T01:20:59.762Z,4.03
2022-08-25T01:23:27.530Z,4.83
2022-08-25T01:26:16.382Z,5.67
2022-08-25T01:29:05.497Z,5.60
2022-08-25T01:31:34.384Z,5.10
2022-08-25T01:34:01.608Z,5.50
2022-08-25T01:36:30.125Z,5.30
2022-08-25T01:38:57.763Z,4.57
2022-08-25T01:42:05.405Z,5.80
2022-08-25T01:44:35.908Z,6.33
2022-08-25T01:47:04.772Z,4.00
2022-08-25T01:49:32.567Z,4.03
2022-08-25T01:52:21.361Z,5.13
2022-08-25T01:54:49.154Z,4.97
2022-08-25T01:57:16.586Z,6.20
2022-08-25T01:59:44.855Z,5.20
2022-08-25T02:02:12.293Z,4.17
2022-08-25T02:04:39.621Z,3.80
2022-08-25T02:07:11.575Z,4.97
2022-08-25T02:09:39.302Z,4.93
2022-08-25T02:12:09.188Z,4.67
2022-08-25T02:14:37.216Z,5.33
2022-08-25T02:17:05.764Z,3.97
2022-08-25T02:19:33.014Z,7.27
2022-08-25T02:22:00.998Z,5.20
2022-08-25T02:24:28.484Z,5.73
2022-08-25T02:26:55.604Z,5.30
2022-08-25T02:29:22.792Z,5.23
2022-08-25T02:31:50.214Z,5.83
2022-08-25T02:34:17.545Z,5.43
2022-08-25T02:36:44.618Z,7.23
2022-08-25T02:39:12.513Z,5.90
2022-08-25T02:41:39.697Z,5.30
2022-08-25T02:44:08.332Z,5.27
2022-08-25T02:46:36.902Z,5.80
2022-08-25T02:49:05.331Z,5.20
2022-08-25T02:51:33.597Z,7.40
2022-08-25T02:54:02.634Z,4.10
2022-08-25T02:56:31.577Z,5.57
2022-08-25T02:58:59.969Z,8.63
2022-08-25T03:01:29.184Z,6.63
2022-08-25T03:03:57.396Z,5.77
2022-08-25T03:06:25.093Z,4.30
2022-08-25T03:08:53.625Z,5.83
2022-08-25T03:11:21.593Z,5.73
2022-08-25T03:13:50.951Z,5.57
2022-08-25T03:16:19.030Z,11.30
2022-08-25T03:18:46.790Z,7.20
2022-08-25T03:21:15.763Z,10.87
2022-08-25T03:23:44.575Z,10.30
2022-08-25T03:26:30.573Z,6.40
2022-08-25T03:28:58.185Z,9.53
2022-08-25T03:31:27.671Z,6.60
2022-08-25T03:33:55.904Z,5.03
2022-08-25T03:36:23.857Z,9.20
2022-08-25T03:38:52.255Z,5.17
2022-08-25T03:41:22.738Z,5.17
2022-08-25T03:43:51.113Z,5.67
2022-08-25T03:46:29.858Z,4.97
2022-08-25T03:48:58.041Z,6.73
2022-08-25T03:51:36.062Z,6.30
2022-08-25T03:54:04.949Z,19.60
2022-08-25T03:56:32.017Z,17.70
2022-08-25T03:59:00.582Z,16.63
2022-08-25T04:01:28.390Z,11.70
2022-08-25T04:03:55.886Z,12.80
2022-08-25T04:06:23.527Z,12.83
2022-08-25T04:08:52.618Z,11.70
2022-08-25T04:11:22.853Z,13.80
2022-08-25T04:13:51.925Z,6.87
2022-08-25T04:16:23.110Z,8.93
2022-08-25T04:18:51.621Z,11.83
2022-08-25T04:21:20.326Z,8.70
2022-08-25T04:23:49.033Z,11.27
2022-08-25T04:26:22.886Z,5.77
2022-08-25T04:28:50.645Z,6.57
2022-08-25T04:31:19.438Z,6.23
2022-08-25T04:33:48.052Z,5.20
2022-08-25T04:36:16.686Z,5.87
2022-08-25T04:38:45.256Z,5.57
2022-08-25T04:41:14.901Z,6.77
2022-08-25T04:43:44.000Z,8.10
2022-08-25T04:46:24.459Z,7.07
2022-08-25T04:48:53.911Z,8.23
2022-08-25T04:51:26.072Z,7.57
2022-08-25T04:53:53.576Z,7.60
2022-08-25T04:56:26.190Z,8.50
2022-08-25T04:58:55.393Z,7.70
2022-08-25T05:01:25.531Z,6.90
2022-08-25T05:03:57.220Z,5.97
2022-08-25T05:06:24.512Z,6.57
2022-08-25T05:08:52.065Z,7.70
2022-08-25T05:11:19.656Z,8.17
2022-08-25T05:13:51.233Z,13.57
2022-08-25T05:16:20.692Z,7.87
2022-08-25T05:18:48.103Z,8.07
2022-08-25T05:21:19.576Z,8.27
2022-08-25T05:23:47.573Z,16.50
2022-08-25T05:26:20.776Z,11.90
2022-08-25T05:28:51.279Z,11.53
2022-08-25T05:31:20.012Z,8.90
2022-08-25T05:33:47.432Z,8.60
2022-08-25T05:36:16.237Z,7.80
2022-08-25T05:38:43.557Z,7.97
2022-08-25T05:41:20.710Z,7.00
2022-08-25T05:43:49.804Z,7.60
2022-08-25T05:46:19.921Z,8.53
2022-08-25T05:48:47.835Z,5.93
2022-08-25T05:51:16.058Z,6.10
2022-08-25T05:53:46.280Z,6.73
2022-08-25T05:56:14.581Z,7.03
2022-08-25T05:58:43.088Z,6.70
2022-08-25T06:01:30.521Z,6.80
2022-08-25T06:03:57.567Z,7.50
2022-08-25T06:06:24.875Z,6.57
2022-08-25T06:08:52.316Z,7.67
2022-08-25T06:11:19.623Z,6.60
2022-08-25T06:13:46.633Z,5.20
2022-08-25T06:16:13.726Z,6.60
2022-08-25T06:18:40.786Z,5.83
2022-08-25T06:21:13.393Z,6.47
2022-08-25T06:23:41.553Z,6.50
2022-08-25T06:26:13.179Z,5.30
2022-08-25T06:28:51.646Z,6.87
2022-08-25T06:31:20.465Z,5.27
2022-08-25T06:33:48.010Z,5.30
2022-08-25T06:36:15.689Z,5.90
2022-08-25T06:38:42.853Z,5.90
2022-08-25T06:41:12.840Z,5.97
2022-08-25T06:43:48.091Z,6.53
2022-08-25T06:46:31.707Z,5.07
2022-08-25T06:49:08.125Z,5.97
2022-08-25T06:51:36.179Z,6.43
2022-08-25T06:54:06.288Z,5.60
2022-08-25T06:56:34.250Z,4.97
2022-08-25T06:59:05.434Z,5.77
2022-08-25T07:01:33.257Z,4.83
2022-08-25T07:04:02.945Z,6.20
2022-08-25T07:06:33.081Z,4.97
2022-08-25T07:09:00.363Z,5.73
2022-08-25T07:11:28.271Z,5.80
2022-08-25T07:13:55.293Z,6.23
2022-08-25T07:16:22.466Z,5.27
2022-08-25T07:18:50.755Z,4.80
2022-08-25T07:21:21.814Z,5.30
2022-08-25T07:23:52.388Z,5.70
2022-08-25T07:26:37.317Z,5.20
2022-08-25T07:29:13.336Z,6.13
2022-08-25T07:31:41.366Z,5.00
2022-08-25T07:34:28.340Z,5.50
2022-08-25T07:36:57.458Z,6.10
2022-08-25T07:39:26.789Z,4.30
2022-08-25T07:41:57.294Z,6.57
2022-08-25T07:44:28.089Z,5.47
2022-08-25T07:46:56.032Z,4.23
2022-08-25T07:49:25.352Z,4.87
2022-08-25T07:52:05.203Z,4.27
2022-08-25T07:54:38.081Z,5.37
2022-08-25T07:57:08.405Z,5.17
2022-08-25T07:59:42.735Z,4.77
2022-08-25T08:02:16.020Z,4.83
2022-08-25T08:04:50.594Z,4.47
2022-08-25T08:07:27.670Z,7.50
2022-08-25T08:13:01.638Z,3.83
2022-08-25T08:15:30.189Z,4.70
2022-08-25T08:17:59.312Z,4.97
2022-08-25T08:20:27.288Z,4.40
2022-08-25T08:22:54.606Z,4.17
2022-08-25T08:25:26.656Z,3.93
2022-08-25T08:27:56.224Z,3.80
2022-08-25T08:30:26.333Z,6.77
2022-08-25T08:33:12.048Z,4.10
2022-08-25T08:35:41.229Z,4.67
2022-08-25T08:38:14.943Z,4.60
2022-08-25T08:41:33.892Z,3.70
2022-08-25T08:44:24.941Z,4.87
2022-08-25T08:47:33.422Z,4.37
2022-08-25T08:51:01.097Z,4.50
2022-08-25T08:53:55.305Z,4.93
2022-08-25T08:56:25.905Z,4.17
2022-08-25T08:59:05.137Z,4.10
2022-08-25T09:01:41.639Z,4.60
2022-08-25T09:04:20.063Z,3.83
2022-08-25T09:06:49.900Z,4.00
2022-08-25T09:12:07.085Z,4.20
2022-08-25T09:14:54.013Z,4.17
2022-08-25T09:17:57.912Z,4.77
2022-08-25T09:20:37.068Z,3.77
2022-08-25T09:23:34.867Z,3.77
2022-08-25T09:26:39.024Z,3.37
2022-08-25T09:29:21.727Z,3.33
2022-08-25T09:31:49.325Z,4.80
2022-08-25T09:34:22.830Z,3.07
2022-08-25T09:36:52.932Z,4.10
2022-08-25T09:39:21.178Z,3.67
2022-08-25T09:42:01.543Z,3.90
2022-08-25T09:44:33.380Z,3.70
2022-08-25T09:47:26.051Z,3.40
2022-08-25T09:49:57.345Z,3.23
2022-08-25T09:52:41.125Z,4.00
2022-08-25T09:55:08.386Z,5.97
2022-08-25T09:57:43.143Z,4.60
2022-08-25T10:00:31.177Z,3.53
2022-08-25T10:03:22.704Z,3.63
2022-08-25T10:06:13.675Z,4.80
2022-08-25T10:08:43.454Z,3.70
2022-08-25T10:11:31.325Z,4.30
2022-08-25T10:14:26.255Z,3.83
2022-08-25T10:16:54.494Z,7.13
2022-08-25T10:19:30.782Z,3.43
2022-08-25T10:22:25.851Z,3.83
2022-08-25T10:24:55.525Z,3.63
2022-08-25T10:28:04.308Z,6.20
2022-08-25T10:31:16.202Z,3.97
2022-08-25T10:33:51.261Z,3.70
2022-08-25T10:36:33.154Z,3.93
2022-08-25T10:39:02.187Z,3.87
2022-08-25T10:42:01.038Z,3.23
2022-08-25T10:45:35.680Z,3.67
2022-08-25T10:48:22.322Z,4.30
2022-08-25T10:51:33.146Z,3.63
2022-08-25T10:54:11.989Z,3.87
2022-08-25T10:56:44.625Z,5.90
2022-08-25T11:00:05.819Z,4.93
2022-08-25T11:03:26.817Z,3.87
2022-08-25T11:06:02.014Z,4.00
2022-08-25T11:08:36.064Z,3.43
2022-08-25T11:11:39.372Z,3.90
2022-08-25T11:14:21.409Z,4.03
2022-08-25T11:16:56.009Z,3.37
2022-08-25T11:19:47.223Z,3.83
2022-08-25T11:22:34.188Z,3.30
2022-08-25T11:25:23.990Z,3.60
2022-08-25T11:28:08.200Z,3.70
2022-08-25T11:30:35.251Z,4.43
2022-08-25T11:33:02.383Z,3.17
2022-08-25T11:35:54.791Z,2.90
2022-08-25T11:39:04.705Z,9.30
2022-08-25T11:41:59.060Z,2.83
2022-08-25T11:44:53.135Z,2.80
2022-08-25T11:47:44.630Z,3.10
2022-08-25T11:50:36.497Z,3.00
2022-08-25T11:53:30.241Z,3.23
2022-08-25T11:56:07.003Z,3.70
2022-08-25T11:58:51.853Z,3.80
2022-08-25T12:01:40.490Z,3.40
2022-08-25T12:04:45.007Z,3.90
2022-08-25T12:07:22.130Z,3.43
2022-08-25T12:09:53.744Z,3.40
2022-08-25T12:12:41.821Z,5.30
2022-08-25T12:15:57.238Z,3.60
2022-08-25T12:18:27.351Z,18.93
2022-08-25T12:20:55.059Z,4.00
2022-08-25T12:23:45.207Z,3.47
2022-08-25T12:26:39.139Z,3.73
2022-08-25T12:29:23.394Z,3.40
2022-08-25T12:32:15.399Z,3.97
2022-08-25T12:35:29.844Z,3.27
2022-08-25T12:38:05.926Z,4.33
2022-08-25T12:40:54.470Z,3.90
2022-08-25T12:43:38.081Z,4.30
2022-08-25T12:46:23.243Z,3.60
2022-08-25T12:48:57.452Z,3.43
2022-08-25T12:51:40.377Z,2.83
2022-08-25T12:54:59.651Z,3.93
2022-08-25T12:57:52.323Z,3.87
2022-08-25T13:00:33.433Z,4.00
2022-08-25T13:03:21.717Z,3.90
2022-08-25T13:06:22.425Z,3.90
2022-08-25T13:09:17.114Z,3.77
2022-08-25T13:11:56.561Z,3.70
2022-08-25T13:14:34.865Z,3.03
2022-08-25T13:17:06.403Z,3.20
2022-08-25T13:19:35.000Z,3.63
2022-08-25T13:22:16.784Z,4.13
2022-08-25T13:24:47.430Z,3.73
2022-08-25T13:27:41.377Z,3.23
2022-08-25T13:30:31.353Z,3.20
2022-08-25T13:32:58.842Z,3.10
2022-08-25T13:35:32.925Z,3.37
2022-08-25T13:38:15.429Z,4.30
2022-08-25T13:40:43.217Z,3.70
2022-08-25T13:43:14.359Z,2.93
2022-08-25T13:45:47.642Z,3.97
2022-08-25T13:48:36.101Z,3.10
2022-08-25T13:51:31.346Z,3.17
2022-08-25T13:54:04.579Z,2.70
2022-08-25T13:56:41.571Z,3.77
2022-08-25T13:59:40.261Z,3.27
2022-08-25T14:02:19.655Z,2.90
2022-08-25T14:04:51.534Z,4.30
2022-08-25T14:07:22.779Z,3.17
2022-08-25T14:10:10.275Z,3.27
2022-08-25T14:12:45.474Z,3.30
2022-08-25T14:15:21.854Z,3.00
2022-08-25T14:18:29.492Z,3.20
2022-08-25T14:20:58.215Z,4.17
2022-08-25T14:23:27.645Z,2.83
2022-08-25T14:25:57.806Z,3.27
2022-08-25T14:28:29.286Z,3.40
2022-08-25T14:31:14.387Z,3.63
2022-08-25T14:33:59.109Z,3.43
2022-08-25T14:36:26.780Z,3.50
2022-08-25T14:38:56.879Z,3.20
2022-08-25T14:41:26.566Z,3.40
2022-08-25T14:43:54.264Z,3.90
2022-08-25T14:46:29.353Z,4.10
2022-08-25T14:49:03.367Z,3.63
2022-08-25T14:51:32.597Z,2.90
2022-08-25T14:54:07.321Z,3.13
2022-08-25T14:56:36.120Z,3.17
2022-08-25T14:59:04.875Z,3.27
2022-08-25T15:01:32.027Z,3.03
2022-08-25T15:04:06.219Z,3.17
2022-08-25T15:06:36.236Z,2.83
2022-08-25T15:09:10.919Z,3.57
2022-08-25T15:11:54.692Z,2.83
2022-08-25T15:14:29.143Z,2.60
2022-08-25T15:17:01.605Z,3.80
2022-08-25T15:19:29.551Z,3.47
2022-08-25T15:21:57.853Z,2.40
2022-08-25T15:24:27.176Z,3.30
2022-08-25T15:27:00.826Z,3.47
2022-08-25T15:29:30.878Z,3.27
2022-08-25T15:32:00.282Z,2.70
2022-08-25T15:34:28.897Z,3.03
2022-08-25T15:36:58.371Z,3.10
2022-08-25T15:39:26.665Z,8.50
2022-08-25T15:41:54.106Z,3.50
2022-08-25T15:44:25.050Z,3.23
2022-08-25T15:46:53.489Z,2.90
2022-08-25T15:49:24.184Z,3.90
2022-08-25T15:51:54.431Z,2.60
2022-08-25T15:54:26.745Z,3.77
2022-08-25T15:56:55.297Z,3.50
2022-08-25T15:59:22.629Z,2.87
2022-08-25T16:01:55.548Z,3.37
2022-08-25T16:04:24.973Z,3.57
2022-08-25T16:06:53.019Z,3.93
2022-08-25T16:09:23.001Z,2.60
2022-08-25T16:11:56.678Z,3.40
2022-08-25T16:14:27.667Z,3.20
2022-08-25T16:16:58.568Z,3.10
2022-08-25T16:19:28.833Z,4.03
2022-08-25T16:21:56.177Z,3.10
2022-08-25T16:24:23.229Z,3.00
2022-08-25T16:26:51.815Z,3.53
2022-08-25T16:29:20.114Z,3.93
2022-08-25T16:31:53.190Z,3.80
2022-08-25T16:34:24.777Z,3.67
2022-08-25T16:36:55.955Z,3.60
2022-08-25T16:39:23.874Z,4.70
2022-08-25T16:41:52.444Z,3.07
2022-08-25T16:44:21.417Z,3.60
2022-08-25T16:46:50.130Z,2.87
2022-08-25T16:49:17.988Z,4.03
2022-08-25T16:51:45.164Z,3.27
2022-08-25T16:54:32.959Z,9.40
2022-08-25T16:57:00.676Z,3.97
2022-08-25T16:59:27.791Z,3.40
2022-08-25T17:01:54.922Z,3.60
2022-08-25T17:04:27.630Z,5.53
2022-08-25T17:07:00.315Z,3.80
2022-08-25T17:09:29.767Z,4.00
2022-08-25T17:11:57.252Z,4.47
2022-08-25T17:14:24.830Z,4.07
2022-08-25T17:16:55.034Z,4.17
2022-08-25T17:19:24.864Z,3.70
2022-08-25T17:21:54.804Z,6.20
2022-08-25T17:24:22.385Z,4.17
2022-08-25T17:26:57.072Z,3.97
2022-08-25T17:29:24.874Z,4.43
2022-08-25T17:31:52.214Z,4.70
2022-08-25T17:34:22.992Z,4.40
2022-08-25T17:36:51.318Z,3.70
2022-08-25T17:39:19.829Z,3.70
2022-08-25T17:41:50.568Z,4.13
2022-08-25T17:44:19.456Z,3.20
2022-08-25T17:46:48.044Z,4.03
2022-08-25T17:49:17.091Z,3.87
2022-08-25T17:51:45.189Z,4.30
2022-08-25T17:54:13.157Z,4.27
2022-08-25T17:56:40.880Z,4.53
2022-08-25T17:59:08.839Z,3.47
2022-08-25T18:01:40.804Z,4.10
2022-08-25T18:04:16.924Z,4.90
2022-08-25T18:06:47.554Z,4.17
2022-08-25T18:09:15.965Z,12.07
2022-08-25T18:11:43.287Z,4.43
2022-08-25T18:14:12.143Z,4.20
2022-08-25T18:16:40.801Z,4.70
2022-08-25T18:19:10.797Z,4.50
2022-08-25T18:21:38.798Z,3.80
2022-08-25T18:24:07.334Z,4.50
2022-08-25T18:26:35.758Z,4.90
2022-08-25T18:29:03.862Z,5.20
2022-08-25T18:31:31.637Z,3.83
2022-08-25T18:33:59.801Z,3.83
2022-08-25T18:36:27.291Z,6.07
2022-08-25T18:39:14.147Z,8.80
2022-08-25T18:41:42.745Z,6.67
2022-08-25T18:44:12.628Z,4.73
2022-08-25T18:46:43.474Z,4.50
2022-08-25T18:49:15.579Z,4.20
2022-08-25T18:51:44.868Z,4.00
2022-08-25T18:54:23.297Z,4.30
2022-08-25T18:56:52.805Z,4.67
2022-08-25T18:59:23.780Z,4.87
2022-08-25T19:01:53.745Z,5.43
2022-08-25T19:04:31.278Z,5.70
2022-08-25T19:07:00.491Z,6.70
2022-08-25T19:09:28.259Z,4.50
2022-08-25T19:11:56.025Z,4.70
2022-08-25T19:14:23.723Z,9.73
2022-08-25T19:16:54.635Z,3.67
2022-08-25T19:19:23.437Z,6.57
2022-08-25T19:21:51.588Z,6.00
2022-08-25T19:24:19.365Z,4.80
2022-08-25T19:26:47.321Z,6.23
2022-08-25T19:29:17.780Z,7.70
2022-08-25T19:31:47.622Z,5.20
2022-08-25T19:34:25.292Z,4.40
2022-08-25T19:36:57.712Z,5.93
2022-08-25T19:39:26.038Z,5.80
2022-08-25T19:41:53.726Z,4.43
2022-08-25T19:44:21.336Z,4.63
2022-08-25T19:46:48.824Z,5.13
2022-08-25T19:49:22.460Z,4.67
2022-08-25T19:51:51.895Z,5.03
2022-08-25T19:54:28.854Z,7.53
2022-08-25T19:56:57.734Z,11.03
2022-08-25T19:59:42.258Z,9.43
2022-08-25T20:02:15.507Z,6.80
2022-08-25T20:04:49.513Z,7.57
2022-08-25T20:07:18.962Z,8.50
2022-08-25T20:09:46.475Z,12.20
2022-08-25T20:14:43.322Z,5.33
2022-08-25T20:17:14.575Z,5.60
2022-08-25T20:19:52.277Z,5.13
2022-08-25T20:22:22.535Z,5.80
2022-08-25T20:24:56.090Z,4.17
2022-08-25T20:27:32.966Z,5.33
2022-08-25T20:30:02.653Z,5.80
2022-08-25T20:32:32.322Z,4.60
2022-08-25T20:35:00.548Z,5.80
2022-08-25T20:37:28.037Z,4.80
2022-08-25T20:39:55.708Z,7.60
2022-08-25T20:42:23.190Z,11.53
2022-08-25T20:44:50.679Z,9.60
2022-08-25T20:47:20.999Z,7.43
2022-08-25T20:49:48.872Z,7.93
2022-08-25T20:52:18.556Z,9.30
2022-08-25T20:54:50.339Z,7.00
2022-08-25T20:57:24.485Z,7.33
2022-08-25T20:59:53.904Z,5.53
2022-08-25T21:02:21.974Z,5.93
2022-08-25T21:04:50.477Z,6.53
2022-08-25T21:07:18.775Z,6.93
2022-08-25T21:09:46.666Z,6.43
2022-08-25T21:12:15.221Z,13.10
2022-08-25T21:14:42.556Z,6.77
2022-08-25T21:17:13.680Z,7.13
2022-08-25T21:19:41.832Z,6.70
2022-08-25T21:22:10.663Z,6.23
2022-08-25T21:24:39.069Z,8.00
2022-08-25T21:27:07.143Z,6.27
2022-08-25T21:29:34.793Z,6.27
2022-08-25T21:32:02.827Z,6.60
2022-08-25T21:34:31.448Z,8.17
2022-08-25T21:37:00.079Z,6.33
2022-08-25T21:39:29.716Z,7.33
2022-08-25T21:42:00.604Z,6.97
2022-08-25T21:44:29.828Z,7.40
2022-08-25T21:46:57.678Z,7.33
2022-08-25T21:49:25.650Z,9.83
2022-08-25T21:52:02.407Z,6.90
2022-08-25T21:54:32.073Z,6.00
2022-08-25T21:57:01.942Z,7.90
2022-08-25T21:59:40.253Z,12.33
2022-08-25T22:02:10.002Z,10.40
2022-08-25T22:04:38.852Z,6.17
2022-08-25T22:07:07.058Z,6.93
2022-08-25T22:09:35.501Z,7.27
2022-08-25T22:12:03.961Z,7.10
2022-08-25T22:14:32.383Z,7.10
2022-08-25T22:17:00.169Z,6.90
2022-08-25T22:19:28.023Z,7.07
2022-08-25T22:21:56.334Z,7.10
2022-08-25T22:24:28.464Z,7.47
2022-08-25T22:26:56.387Z,6.70
2022-08-25T22:29:25.744Z,9.00
2022-08-25T22:32:00.634Z,7.07
2022-08-25T22:34:33.155Z,7.10
2022-08-25T22:37:04.936Z,8.37
2022-08-25T22:39:34.186Z,7.13
2022-08-25T22:42:02.907Z,8.30
2022-08-25T22:44:30.375Z,6.87
2022-08-25T22:46:57.819Z,7.17
2022-08-25T22:49:29.048Z,8.40
2022-08-25T22:51:56.398Z,6.90
2022-08-25T22:54:25.595Z,6.30
2022-08-25T22:56:53.585Z,7.80
2022-08-25T22:59:22.206Z,9.43
2022-08-25T23:01:52.581Z,7.43
2022-08-25T23:04:22.258Z,6.80
2022-08-25T23:06:50.351Z,7.17
2022-08-25T23:09:17.998Z,8.33
2022-08-25T23:11:45.654Z,7.83
2022-08-25T23:14:13.313Z,7.63
2022-08-25T23:16:42.198Z,7.80
2022-08-25T23:19:14.335Z,7.40
2022-08-25T23:22:01.875Z,7.23
2022-08-25T23:24:30.836Z,8.00
2022-08-25T23:26:59.273Z,9.53
2022-08-25T23:29:27.711Z,7.30
2022-08-25T23:31:55.962Z,7.40
2022-08-25T23:34:24.474Z,7.27
2022-08-25T23:36:52.114Z,28.37
2022-08-25T23:39:21.684Z,11.63
2022-08-25T23:41:50.101Z,7.93
2022-08-25T23:44:18.571Z,7.83
2022-08-25T23:46:47.589Z,8.10
2022-08-25T23:49:18.352Z,7.30
2022-08-25T23:51:48.638Z,7.90
2022-08-25T23:54:17.772Z,8.80
2022-08-25T23:56:51.585Z,9.37
2022-08-25T23:59:24.200Z,8.87
